Time;durP1;ratioP1;P1;durP2;ratioP2;P2;SDS_P1;SDS_P2;PMS_P1;PMS_P2;Temp;Humidity;BMP_temperature;BMP_pressure;BME280_temperature;BME280_humidity;BME280_pressure;Samples;Min_cycle;Max_cycle;Signal;HPM_P1;HPM_P2
2023/01/30 00:00:26;;;;;;;33.72;8.18;;;;;;;;;;4902962;29;20040;-70
2023/01/30 00:02:52;;;;;;;35.80;7.72;;;;;;;;;;4917291;29;20043;-70
2023/01/30 00:05:18;;;;;;;30.25;8.15;;;;;;;;;;4917376;29;20039;-70
2023/01/30 00:07:44;;;;;;;40.55;8.90;;;;;;;;;;4918609;29;20508;-70
2023/01/30 00:10:10;;;;;;;29.40;7.22;;;;;;;;;;4889641;29;20515;-70
2023/01/30 00:12:36;;;;;;;39.13;7.90;;;;;;;;;;4901425;29;20046;-70
2023/01/30 00:15:02;;;;;;;39.15;8.15;;;;;;;;;;4894344;29;20098;-70
2023/01/30 00:17:28;;;;;;;39.33;8.43;;;;;;;;;;4917285;29;20039;-70
2023/01/30 00:19:54;;;;;;;35.75;9.13;;;;;;;;;;4913875;29;20119;-70
2023/01/30 00:22:20;;;;;;;32.03;7.55;;;;;;;;;;4911174;29;20061;-71
2023/01/30 00:24:46;;;;;;;35.83;8.82;;;;;;;;;;4918203;29;20075;-71
2023/01/30 00:27:12;;;;;;;28.10;7.18;;;;;;;;;;4903169;29;20036;-70
2023/01/30 00:29:41;;;;;;;26.58;7.18;;;;;;;;;;4901247;29;20484;-69
2023/01/30 00:32:07;;;;;;;31.77;8.55;;;;;;;;;;4906359;29;20523;-70
2023/01/30 00:34:33;;;;;;;41.88;9.15;;;;;;;;;;4887907;29;20047;-70
2023/01/30 00:36:59;;;;;;;37.50;10.23;;;;;;;;;;4888179;29;20044;-69
2023/01/30 00:39:26;;;;;;;33.67;7.60;;;;;;;;;;4869126;29;20148;-70
2023/01/30 00:47:21;;;;;;;28.80;8.40;;;;;;;;;;4898235;29;20056;-74
2023/01/30 00:49:47;;;;;;;34.22;8.23;;;;;;;;;;4896394;29;20552;-74
2023/01/30 00:52:13;;;;;;;37.33;9.45;;;;;;;;;;4867479;29;20405;-74
2023/01/30 00:54:39;;;;;;;32.17;8.98;;;;;;;;;;4851432;29;20154;-73
2023/01/30 00:57:05;;;;;;;37.40;9.60;;;;;;;;;;4882113;29;20135;-73
2023/01/30 00:59:31;;;;;;;37.75;8.80;;;;;;;;;;4886274;29;20056;-74
2023/01/30 01:01:58;;;;;;;39.15;9.20;;;;;;;;;;4897093;29;20040;-74
2023/01/30 01:04:24;;;;;;;41.78;10.48;;;;;;;;;;4883271;29;20058;-73
2023/01/30 01:06:50;;;;;;;34.63;8.98;;;;;;;;;;4891861;29;20400;-73
2023/01/30 01:09:16;;;;;;;38.03;10.05;;;;;;;;;;4886318;29;20041;-74
2023/01/30 01:11:42;;;;;;;45.28;9.73;;;;;;;;;;4867326;29;20040;-74
2023/01/30 01:14:08;;;;;;;44.08;10.57;;;;;;;;;;4881644;29;20512;-74
2023/01/30 01:16:35;;;;;;;48.63;8.98;;;;;;;;;;4866428;29;20489;-74
2023/01/30 01:19:01;;;;;;;36.42;8.77;;;;;;;;;;4879127;29;20119;-74
2023/01/30 01:21:27;;;;;;;36.70;9.85;;;;;;;;;;4895639;29;20040;-74
2023/01/30 01:23:55;;;;;;;46.08;8.75;;;;;;;;;;4888453;29;20139;-74
2023/01/30 01:26:21;;;;;;;32.15;8.63;;;;;;;;;;4883793;29;20171;-74
2023/01/30 01:28:47;;;;;;;44.53;10.10;;;;;;;;;;4897971;29;20088;-74
2023/01/30 01:31:15;;;;;;;39.67;10.75;;;;;;;;;;4898427;29;20103;-74
2023/01/30 01:33:41;;;;;;;38.33;10.10;;;;;;;;;;4871309;29;20565;-74
2023/01/30 01:36:08;;;;;;;49.95;8.88;;;;;;;;;;4865815;29;20096;-74
2023/01/30 01:38:35;;;;;;;42.03;9.43;;;;;;;;;;4903269;29;20055;-74
2023/01/30 01:41:01;;;;;;;55.00;11.45;;;;;;;;;;4875451;29;20150;-74
2023/01/30 01:43:29;;;;;;;54.58;8.60;;;7.00;99.90;;;;;;4901018;29;20042;-74
2023/01/30 01:45:59;;;;;;;55.80;9.40;;;;;;;;;;4917039;29;20039;-74
2023/01/30 01:48:28;;;;;;;40.53;8.02;;;;;;;;;;4903586;29;20032;-74
2023/01/30 01:51:00;;;;;;;60.92;9.00;;;7.00;99.90;;;;;;4908653;29;20036;-75
2023/01/30 01:53:32;;;;;;;46.72;7.95;;;6.90;99.90;;;;;;4933314;29;20357;-74
2023/01/30 01:55:59;;;;;;;56.40;9.73;;;;;;;;;;4902167;29;20047;-74
2023/01/30 01:58:28;;;;;;;41.25;7.65;;;;;;;;;;4909514;29;20056;-74
2023/01/30 02:00:58;;;;;;;50.58;7.80;;;7.30;99.90;;;;;;4928554;29;20553;-75
2023/01/30 02:03:26;;;;;;;70.47;10.32;;;7.20;99.90;;;;;;4884394;29;20032;-75
2023/01/30 02:05:55;;;;;;;70.18;9.98;;;;;;;;;;4884538;29;20075;-75
2023/01/30 02:08:26;;;;;;;53.38;9.02;;;7.00;99.90;;;;;;4884250;29;20044;-74
2023/01/30 02:11:00;;;;;;;52.42;9.82;;;;;;;;;;4906826;29;20048;-74
2023/01/30 02:13:27;;;;;;;47.10;7.97;;;;;;;;;;4899930;29;20389;-75
2023/01/30 02:15:53;;;;;;;45.03;8.27;;;;;;;;;;4899705;29;20397;-75
2023/01/30 02:18:19;;;;;;;47.28;8.82;;;;;;;;;;4899572;29;20047;-74
2023/01/30 02:20:51;;;;;;;48.50;8.10;;;7.20;99.90;;;;;;4905677;29;20179;-74
2023/01/30 02:23:50;;;;;;;45.80;7.95;;;7.20;99.90;;;;;;4914992;29;20040;-74
2023/01/30 02:26:25;;;;;;;45.78;9.00;;;;;;;;;;4914565;29;20040;-74
2023/01/30 02:29:00;;;;;;;40.35;7.85;;;;;;;;;;4911750;29;20066;-74
2023/01/30 02:31:37;;;;;;;50.72;8.27;;;;;;;;;;4900471;29;20132;-74
2023/01/30 02:34:03;;;;;;;59.53;8.32;;;;;;;;;;4900376;29;20060;-74
2023/01/30 02:36:39;;;;;;;59.45;9.45;;;;;;;;;;4899377;29;20100;-74
2023/01/30 02:39:05;;;;;;;49.58;7.93;;;;;;;;;;4916430;29;20155;-74
2023/01/30 02:41:40;;;;;;;40.83;8.57;;;7.30;99.90;;;;;;4902179;29;20043;-74
2023/01/30 02:44:31;;;;;;;60.08;8.05;;;7.50;99.90;;;;;;4918068;29;20115;-74
2023/01/30 02:47:12;;;;;;;34.75;9.32;;;7.30;99.90;;;;;;4916571;29;20050;-74
2023/01/30 02:49:43;;;;;;;47.30;8.18;;;7.30;99.90;;;;;;4906930;29;20040;-74
2023/01/30 02:52:11;;;;;;;35.35;8.13;;;7.40;99.90;;;;;;4911787;29;20040;-74
2023/01/30 02:54:38;;;;;;;51.03;8.23;;;;;;;;;;4905225;29;20084;-74
2023/01/30 02:57:04;;;;;;;57.65;9.70;;;;;;;;;;4919168;29;20509;-74
2023/01/30 02:59:35;;;;;;;35.30;8.82;;;7.30;99.90;;;;;;4911178;29;20044;-74
2023/01/30 03:02:02;;;;;;;45.20;7.60;;;;;;;;;;4907217;29;20036;-74
2023/01/30 03:04:43;;;;;;;50.20;7.70;;;7.30;99.90;;;;;;4918870;29;20058;-74
2023/01/30 03:07:27;;;;;;;38.75;8.23;;;;;;;;;;4932522;29;20079;-74
2023/01/30 03:10:01;;;;;;;30.73;7.30;;;;;;;;;;4903361;29;20127;-74
2023/01/30 03:12:27;;;;;;;55.38;7.70;;;;;;;;;;4919699;29;20095;-74
2023/01/30 03:15:21;;;;;;;51.55;7.63;;;6.90;99.90;;;;;;4918408;29;20052;-74
2023/01/30 03:17:47;;;;;;;42.40;8.23;;;;;;;;;;4912475;29;20463;-74
2023/01/30 03:20:15;;;;;;;36.35;7.40;;;7.10;99.90;;;;;;4908396;29;20095;-74
2023/01/30 03:22:41;;;;;;;44.13;7.65;;;;;;;;;;4919125;29;20046;-71
2023/01/30 03:25:07;;;;;;;39.80;6.47;;;;;;;;;;4918352;29;20361;-75
2023/01/30 03:27:34;;;;;;;33.60;6.38;;;7.30;99.90;;;;;;4907033;29;20031;-74
2023/01/30 03:30:00;;;;;;;45.03;6.40;;;;;;;;;;4887273;29;20052;-74
2023/01/30 03:32:26;;;;;;;38.70;5.63;;;;;;;;;;4886635;29;20685;-74
2023/01/30 03:34:53;;;;;;;50.35;6.40;;;;;;;;;;4903151;29;20043;-74
2023/01/30 03:37:19;;;;;;;45.05;7.07;;;;;;;;;;4902815;29;20123;-74
2023/01/30 03:39:45;;;;;;;40.45;6.60;;;;;;;;;;4917957;29;20043;-74
2023/01/30 03:42:11;;;;;;;46.97;7.30;;;;;;;;;;4919012;29;20035;-74
2023/01/30 03:44:37;;;;;;;39.45;6.10;;;;;;;;;;4918255;29;20397;-74
2023/01/30 03:47:03;;;;;;;49.83;6.68;;;;;;;;;;4903223;29;20048;-74
2023/01/30 03:49:29;;;;;;;44.92;8.43;;;;;;;;;;4901543;29;20038;-74
2023/01/30 03:51:55;;;;;;;39.05;7.13;;;;;;;;;;4900364;29;20473;-74
2023/01/30 03:54:21;;;;;;;52.70;7.30;;;;;;;;;;4903102;29;20374;-74
2023/01/30 03:56:47;;;;;;;61.05;7.53;;;;;;;;;;4903813;29;20039;-75
2023/01/30 03:59:13;;;;;;;41.00;6.82;;;;;;;;;;4919121;29;20040;-74
2023/01/30 04:01:39;;;;;;;49.33;7.63;;;;;;;;;;4879463;29;20152;-74
2023/01/30 04:04:05;;;;;;;53.55;6.78;;;;;;;;;;4887219;29;20050;-74
2023/01/30 04:06:31;;;;;;;35.03;5.85;;;;;;;;;;4903642;29;20477;-74
2023/01/30 04:08:57;;;;;;;53.03;6.47;;;;;;;;;;4902029;29;20460;-74
2023/01/30 04:11:23;;;;;;;36.67;5.93;;;;;;;;;;4901343;29;20051;-75
2023/01/30 04:13:50;;;;;;;56.35;8.02;;;;;;;;;;4901840;29;20044;-75
2023/01/30 04:16:19;;;;;;;66.78;7.68;;;7.00;99.90;;;;;;4901210;29;20040;-74
2023/01/30 04:18:45;;;;;;;46.80;7.30;;;;;;;;;;4901331;29;20401;-74
2023/01/30 04:21:11;;;;;;;48.20;6.40;;;;;;;;;;4885375;29;20127;-75
2023/01/30 04:23:37;;;;;;;45.63;5.38;;;;;;;;;;4911003;29;20036;-74
2023/01/30 04:26:03;;;;;;;49.92;7.40;;;;;;;;;;4912475;29;20131;-74
2023/01/30 04:28:29;;;;;;;52.58;7.20;;;;;;;;;;4901246;29;20036;-74
2023/01/30 04:30:55;;;;;;;56.13;7.15;;;;;;;;;;4899270;29;20039;-74
2023/01/30 04:33:21;;;;;;;48.90;8.27;;;;;;;;;;4905913;29;20044;-74
2023/01/30 04:35:58;;;;;;;41.53;6.20;;;7.00;99.90;;;;;;4901969;29;20404;-75
2023/01/30 04:38:25;;;;;;;52.97;6.35;;;;;;;;;;4900939;29;20641;-74
2023/01/30 04:40:52;;;;;;;62.15;7.63;;;;;;;;;;4900731;29;20501;-74
2023/01/30 04:43:18;;;;;;;55.85;6.28;;;;;;;;;;4916230;29;20035;-74
2023/01/30 04:45:45;;;;;;;45.72;6.60;;;6.80;99.90;;;;;;4900918;29;20050;-75
2023/01/30 04:48:12;;;;;;;64.97;6.82;;;;;;;;;;4902381;29;20063;-74
2023/01/30 04:50:38;;;;;;;41.22;5.40;;;;;;;;;;4917694;29;20551;-74
2023/01/30 04:53:04;;;;;;;60.00;7.20;;;;;;;;;;4902674;29;20046;-74
2023/01/30 04:55:31;;;;;;;55.47;5.80;;;;;;;;;;4901808;29;20035;-74
2023/01/30 04:57:57;;;;;;;53.03;5.80;;;;;;;;;;4917813;29;20507;-74
2023/01/30 05:00:23;;;;;;;42.20;6.53;;;;;;;;;;4898283;29;20047;-75
2023/01/30 05:02:49;;;;;;;60.33;5.35;;;;;;;;;;4917571;29;20487;-74
2023/01/30 05:05:15;;;;;;;40.55;5.95;;;;;;;;;;4909684;29;20042;-75
2023/01/30 05:07:41;;;;;;;49.33;7.10;;;;;;;;;;4902489;29;20052;-74
2023/01/30 05:10:08;;;;;;;48.65;6.50;;;;;;;;;;4912450;29;20040;-74
2023/01/30 05:12:34;;;;;;;62.88;7.78;;;;;;;;;;4900527;29;20048;-74
2023/01/30 05:15:00;;;;;;;67.43;6.65;;;;;;;;;;4902336;29;20050;-74
2023/01/30 05:17:26;;;;;;;53.90;5.10;;;;;;;;;;4869366;29;20126;-74
2023/01/30 05:19:52;;;;;;;53.47;5.75;;;;;;;;;;4902411;29;20048;-74
2023/01/30 05:22:18;;;;;;;59.13;7.22;;;;;;;;;;4871595;29;20044;-74
2023/01/30 05:24:44;;;;;;;58.42;6.18;;;;;;;;;;4900888;29;20031;-74
2023/01/30 05:27:10;;;;;;;54.17;6.22;;;;;;;;;;4917269;29;20035;-74
2023/01/30 05:29:36;;;;;;;45.38;5.47;;;;;;;;;;4909076;29;20040;-74
2023/01/30 05:32:03;;;;;;;59.92;5.97;;;;;;;;;;4885619;29;20079;-74
2023/01/30 05:34:29;;;;;;;44.00;4.35;;;;;;;;;;4900384;29;20111;-74
2023/01/30 05:36:55;;;;;;;57.40;6.80;;;;;;;;;;4910760;29;20040;-74
2023/01/30 05:39:21;;;;;;;45.45;5.07;;;;;;;;;;4898506;29;20523;-75
2023/01/30 05:41:47;;;;;;;46.45;5.10;;;;;;;;;;4895662;29;20183;-74
2023/01/30 05:44:14;;;;;;;53.20;5.70;;;;;;;;;;4884591;29;20040;-74
2023/01/30 05:46:40;;;;;;;53.55;5.05;;;;;;;;;;4899919;29;20127;-74
2023/01/30 05:49:06;;;;;;;39.13;4.55;;;;;;;;;;4905150;29;20042;-74
2023/01/30 05:51:32;;;;;;;45.60;6.00;;;;;;;;;;4907366;29;20048;-74
2023/01/30 05:53:59;;;;;;;61.78;7.57;;;;;;;;;;4899892;29;20139;-74
2023/01/30 05:56:25;;;;;;;48.53;5.45;;;;;;;;;;4900855;29;20075;-74
2023/01/30 05:58:52;;;;;;;55.05;6.03;;;;;;;;;;4914500;29;20071;-74
2023/01/30 06:01:18;;;;;;;54.17;6.88;;;;;;;;;;4911468;29;20044;-74
2023/01/30 06:03:44;;;;;;;48.00;5.97;;;;;;;;;;4909802;29;20040;-74
2023/01/30 06:06:11;;;;;;;53.35;5.70;;;6.70;99.90;;;;;;4910036;29;20043;-74
2023/01/30 06:08:37;;;;;;;64.93;6.05;;;;;;;;;;4908601;29;20039;-75
2023/01/30 06:11:05;;;;;;;61.13;6.90;;;;;;;;;;4910903;29;20433;-74
2023/01/30 06:13:31;;;;;;;48.15;5.35;;;;;;;;;;4908487;29;20474;-74
2023/01/30 06:15:57;;;;;;;56.97;7.32;;;;;;;;;;4901547;29;20046;-75
2023/01/30 06:18:23;;;;;;;57.75;5.70;;;;;;;;;;4912805;29;20123;-74
2023/01/30 06:20:50;;;;;;;42.63;5.25;;;;;;;;;;4901646;29;20055;-74
2023/01/30 06:23:17;;;;;;;46.05;5.60;;;;;;;;;;4902118;29;20035;-74
2023/01/30 06:25:46;;;;;;;51.47;6.05;;;;;;;;;;4912750;29;20050;-74
2023/01/30 06:28:13;;;;;;;54.40;5.20;;;6.70;99.90;;;;;;4913626;29;20178;-74
2023/01/30 06:30:39;;;;;;;48.45;10.07;;;;;;;;;;4899955;29;20047;-74
2023/01/30 06:33:05;;;;;;;56.50;7.75;;;;;;;;;;4913438;29;20047;-74
2023/01/30 06:35:32;;;;;;;59.95;6.13;;;;;;;;;;4911698;29;20570;-74
2023/01/30 06:38:00;;;;;;;49.17;7.38;;;;;;;;;;4913410;29;20092;-74
2023/01/30 06:40:26;;;;;;;49.15;5.72;;;;;;;;;;4913505;29;20051;-74
2023/01/30 06:42:52;;;;;;;50.30;5.38;;;;;;;;;;4913367;29;20491;-74
2023/01/30 06:45:18;;;;;;;57.17;8.32;;;;;;;;;;4904476;29;20035;-73
2023/01/30 06:47:48;;;;;;;45.53;6.30;;;;;;;;;;4879390;29;20036;-73
2023/01/30 06:50:16;;;;;;;50.42;5.50;;;;;;;;;;4907429;29;20071;-74
2023/01/30 06:52:43;;;;;;;42.00;5.53;;;;;;;;;;4909985;29;20055;-75
2023/01/30 06:55:10;;;;;;;42.53;6.43;;;6.80;99.90;;;;;;4912523;29;20062;-75
2023/01/30 06:57:36;;;;;;;41.58;5.55;;;;;;;;;;4903738;29;20043;-75
2023/01/30 07:00:04;;;;;;;58.42;5.80;;;;;;;;;;4897139;29;20082;-75
2023/01/30 07:02:34;;;;;;;48.38;5.95;;;;;;;;;;4907819;29;20066;-75
2023/01/30 07:05:00;;;;;;;69.00;7.47;;;;;;;;;;4901795;29;20134;-75
2023/01/30 07:07:26;;;;;;;60.88;6.55;;;;;;;;;;4911291;29;20031;-75
2023/01/30 07:09:52;;;;;;;58.60;6.57;;;;;;;;;;4919118;29;20044;-75
2023/01/30 07:12:19;;;;;;;58.10;6.40;;;;;;;;;;4917215;29;20091;-75
2023/01/30 07:14:45;;;;;;;61.47;7.18;;;;;;;;;;4919425;29;20484;-74
2023/01/30 07:17:11;;;;;;;65.00;6.13;;;;;;;;;;4903900;29;20126;-75
2023/01/30 07:19:38;;;;;;;53.65;8.93;;;;;;;;;;4924949;29;20055;-74
2023/01/30 07:22:04;;;;;;;63.47;7.90;;;;;;;;;;4912210;29;20092;-75
2023/01/30 07:24:30;;;;;;;82.22;7.88;;;;;;;;;;4905348;29;20552;-75
2023/01/30 07:26:56;;;;;;;53.08;5.63;;;;;;;;;;4918536;29;20039;-75
2023/01/30 07:29:22;;;;;;;52.90;6.03;;;;;;;;;;4914876;29;20137;-74
2023/01/30 07:31:48;;;;;;;48.05;6.65;;;;;;;;;;4910574;29;20051;-76
2023/01/30 07:34:14;;;;;;;55.35;6.82;;;;;;;;;;4895813;29;20040;-76
2023/01/30 07:36:40;;;;;;;57.45;6.60;;;;;;;;;;4910592;29;20489;-76
2023/01/30 07:39:08;;;;;;;48.97;6.00;;;;;;;;;;4910815;29;20059;-76
2023/01/30 07:41:34;;;;;;;47.10;6.28;;;;;;;;;;4899357;29;20056;-76
2023/01/30 07:44:01;;;;;;;48.15;7.00;;;;;;;;;;4905135;29;20473;-76
2023/01/30 07:46:33;;;;;;;51.17;5.15;;;;;;;;;;4902286;29;20099;-76
2023/01/30 07:49:00;;;;;;;54.90;6.45;;;6.90;99.90;;;;;;4902181;29;20119;-76
2023/01/30 07:51:26;;;;;;;65.65;7.50;;;;;;;;;;4870877;29;20048;-76
2023/01/30 07:53:52;;;;;;;52.42;6.13;;;;;;;;;;4885124;29;20046;-76
2023/01/30 07:56:20;;;;;;;50.72;6.30;;;;;;;;;;4905171;29;20055;-76
2023/01/30 07:58:47;;;;;;;59.38;5.97;;;;;;;;;;4920503;29;20059;-76
2023/01/30 08:01:13;;;;;;;47.63;5.75;;;;;;;;;;4920317;29;20048;-75
2023/01/30 08:03:39;;;;;;;43.72;6.72;;;;;;;;;;4920885;29;20366;-76
2023/01/30 08:06:06;;;;;;;50.80;6.30;;;;;;;;;;4920324;29;20048;-76
2023/01/30 08:08:32;;;;;;;53.17;6.32;;;;;;;;;;4920067;29;20377;-76
2023/01/30 08:10:58;;;;;;;64.05;6.68;;;;;;;;;;4920649;29;20044;-76
2023/01/30 08:13:24;;;;;;;63.13;6.25;;;;;;;;;;4920388;29;20044;-76
2023/01/30 08:15:50;;;;;;;47.63;5.88;;;;;;;;;;4920352;29;20081;-76
2023/01/30 08:18:16;;;;;;;63.70;6.93;;;;;;;;;;4919847;29;20043;-76
2023/01/30 08:20:43;;;;;;;71.60;8.05;;;;;;;;;;4904422;29;20047;-76
2023/01/30 08:23:09;;;;;;;58.70;7.32;;;;;;;;;;4930681;29;20522;-75
2023/01/30 08:25:36;;;;;;;58.25;6.28;;;;;;;;;;4939341;29;20432;-75
2023/01/30 08:28:02;;;;;;;53.38;5.97;;;;;;;;;;4914375;29;20218;-75
2023/01/30 08:30:29;;;;;;;56.33;7.05;;;;;;;;;;4919414;29;20512;-75
2023/01/30 08:32:55;;;;;;;53.60;6.10;;;;;;;;;;4918135;29;20051;-75
2023/01/30 08:35:22;;;;;;;49.30;6.10;;;;;;;;;;4915608;29;20044;-75
2023/01/30 08:37:48;;;;;;;67.07;8.45;;;;;;;;;;4904254;29;20051;-75
2023/01/30 08:40:14;;;;;;;55.70;6.78;;;;;;;;;;4918418;29;20114;-75
2023/01/30 08:42:44;;;;;;;55.38;6.22;;;;;;;;;;4903778;29;20062;-75
2023/01/30 08:45:10;;;;;;;53.13;7.80;;;;;;;;;;4916262;29;20042;-75
2023/01/30 08:47:36;;;;;;;57.05;7.03;;;;;;;;;;4915449;29;20540;-75
2023/01/30 08:50:04;;;;;;;61.05;8.60;;;7.00;99.90;;;;;;4919258;29;20100;-75
2023/01/30 08:52:31;;;;;;;49.03;6.20;;;;;;;;;;4915924;29;20122;-74
2023/01/30 08:54:57;;;;;;;61.40;6.72;;;;;;;;;;4913895;29;20129;-75
2023/01/30 08:57:23;;;;;;;57.25;6.80;;;;;;;;;;4911137;29;20044;-75
2023/01/30 08:59:50;;;;;;;62.22;6.15;;;;;;;;;;4901651;29;20075;-74
2023/01/30 09:02:16;;;;;;;62.53;6.68;;;;;;;;;;4901971;29;20046;-74
2023/01/30 09:04:42;;;;;;;72.57;6.72;;;;;;;;;;4908144;29;20042;-75
2023/01/30 09:07:09;;;;;;;48.47;5.35;;;;;;;;;;4916679;29;20040;-75
2023/01/30 09:09:35;;;;;;;55.65;5.85;;;;;;;;;;4903253;29;20041;-75
2023/01/30 09:12:01;;;;;;;47.83;6.47;;;;;;;;;;4919230;29;20039;-75
2023/01/30 09:14:27;;;;;;;48.78;6.32;;;;;;;;;;4919164;29;20126;-75
2023/01/30 09:16:56;;;;;;;56.10;6.35;;;;;;;;;;4919384;29;20087;-75
2023/01/30 09:19:22;;;;;;;56.33;6.63;;;;;;;;;;4903968;29;20048;-75
2023/01/30 09:21:49;;;;;;;76.45;8.30;;;;;;;;;;4919170;29;20043;-75
2023/01/30 09:24:15;;;;;;;66.78;8.55;;;;;;;;;;4919114;29;20556;-75
2023/01/30 09:26:43;;;;;;;57.25;6.05;;;;;;;;;;4919138;29;20043;-75
2023/01/30 09:29:13;;;;;;;53.17;6.60;;;;;;;;;;4919561;29;20079;-75
2023/01/30 09:31:39;;;;;;;82.97;8.50;;;;;;;;;;4918915;29;20497;-74
2023/01/30 09:34:05;;;;;;;52.47;5.65;;;;;;;;;;4919027;29;20054;-75
2023/01/30 09:36:31;;;;;;;43.42;6.50;;;;;;;;;;4919025;29;20488;-74
2023/01/30 09:38:57;;;;;;;47.38;6.15;;;;;;;;;;4903228;29;20129;-75
2023/01/30 09:41:42;;;;;;;55.88;5.53;;;;;;;;;;4918938;29;20504;-75
2023/01/30 09:44:32;;;;;;;62.53;7.32;;;7.30;99.90;;;;;;4918791;29;20040;-74
2023/01/30 09:47:02;;;;;;;39.22;6.60;;;;;;;;;;4918954;29;20035;-74
2023/01/30 09:49:28;;;;;;;61.33;8.00;;;;;;;;;;4918693;29;20048;-75
2023/01/30 09:51:54;;;;;;;59.53;7.60;;;;;;;;;;4918773;29;20043;-74
2023/01/30 09:54:25;;;;;;;54.38;4.78;;;7.60;99.90;;;;;;4918645;29;20127;-75
2023/01/30 09:56:55;;;;;;;49.60;7.45;;;;;;;;;;4918842;29;20044;-75
2023/01/30 09:59:24;;;;;;;62.90;5.85;;;;;;;;;;4918949;29;20090;-75
2023/01/30 10:01:59;;;;;;;48.15;5.90;;;;;;;;;;4918606;29;20058;-74
2023/01/30 10:04:33;;;;;;;57.95;8.10;;;;;;;;;;4918844;29;20039;-74
2023/01/30 10:07:20;;;;;;;71.53;7.65;;;;;;;;;;4918987;29;20224;-75
2023/01/30 10:09:52;;;;;;;56.55;9.45;;;;;;;;;;4890251;29;20043;-75
2023/01/30 10:12:27;;;;;;;47.03;6.28;;;;;;;;;;4919189;29;20035;-74
2023/01/30 10:14:59;;;;;;;58.72;7.03;;;;;;;;;;4918606;29;20489;-75
2023/01/30 10:17:33;;;;;;;52.33;6.78;;;;;;;;;;4918676;29;20552;-70
2023/01/30 10:20:15;;;;;;;58.45;8.45;;;;;;;;;;4915293;29;20050;-70
2023/01/30 10:23:01;;;;;;;61.40;9.65;;;;;;;;;;4918724;29;20047;-70
2023/01/30 10:25:45;;;;;;;38.65;6.90;;;;;;;;;;4918619;29;20515;-70
2023/01/30 10:28:19;;;;;;;52.83;6.00;;;7.80;99.90;;;;;;4918751;29;20036;-70
2023/01/30 10:30:51;;;;;;;66.88;8.77;;;;;;;;;;4918536;29;20054;-70
2023/01/30 10:33:28;;;;;;;57.53;6.07;;;;;;;;;;4918681;29;20043;-70
2023/01/30 10:36:02;;;;;;;48.58;6.50;;;;;;;;;;4918791;29;20098;-70
2023/01/30 10:38:38;;;;;;;44.97;6.40;;;7.40;99.90;;;;;;4934237;29;20066;-70
2023/01/30 10:41:11;;;;;;;39.05;4.80;;;;;;;;;;4916582;29;20103;-70
2023/01/30 10:43:43;;;;;;;27.67;3.47;;;7.50;99.90;;;;;;4913617;29;20392;-69
2023/01/30 10:46:09;;;;;;;31.08;3.72;;;;;;;;;;4913349;29;20036;-70
2023/01/30 10:48:54;;;;;;;25.25;3.45;;;;;;;;;;4933070;29;20071;-69
2023/01/30 10:51:21;;;;;;;23.63;3.13;;;;;;;;;;4913665;29;20052;-69
2023/01/30 10:53:59;;;;;;;26.23;3.80;;;;;;;;;;4907738;29;20047;-70
2023/01/30 10:56:31;;;;;;;28.27;3.75;;;;;;;;;;4917205;29;20568;-69
2023/01/30 10:59:03;;;;;;;28.50;4.10;;;;;;;;;;4918595;29;20400;-69
2023/01/30 11:01:43;;;;;;;;;;;7.20;99.90;;;;;;4911310;29;20048;-70
2023/01/30 11:04:45;;;;;;;35.72;5.00;;;7.50;99.90;;;;;;4902958;29;20025;-69
2023/01/30 11:07:12;;;;;;;57.75;5.60;;;;;;;;;;4913210;29;20395;-70
2023/01/30 11:09:47;;;;;;;57.25;6.25;;;7.60;99.90;;;;;;4925839;29;20039;-69
2023/01/30 11:12:14;;;;;;;37.08;4.95;;;;;;;;;;4917718;29;20108;-69
2023/01/30 11:15:10;;;;;;;62.80;6.28;;;7.90;99.90;;;;;;4902955;29;20127;-69
2023/01/30 11:17:38;;;;;;;40.97;5.60;;;;;;;;;;4892352;29;20060;-69
2023/01/30 11:20:07;;;;;;;30.85;4.43;;;;;;;;;;4902439;29;20052;-69
2023/01/30 11:22:35;;;;;;;27.65;3.60;;;7.20;99.90;;;;;;4919755;29;20040;-69
2023/01/30 11:25:10;;;;;;;24.35;3.08;;;7.20;99.90;;;;;;4921656;29;20035;-69
2023/01/30 11:27:36;;;;;;;28.02;2.97;;;;;;;;;;4921195;29;20032;-69
2023/01/30 11:30:22;;;;;;;26.48;3.13;;;;;;;;;;4905528;29;20075;-69
2023/01/30 11:32:49;;;;;;;30.02;3.40;;;6.60;99.90;;;;;;4902041;29;20040;-69
2023/01/30 11:35:15;;;;;;;24.02;3.97;;;;;;;;;;4893170;29;20054;-69
2023/01/30 11:37:42;;;;;;;27.35;3.67;;;;;;;;;;4895897;29;20069;-69
2023/01/30 11:40:22;;;;;;;25.00;4.43;;;;;;;;;;4903107;29;20044;-69
2023/01/30 11:42:49;;;;;;;28.17;3.85;;;;;;;;;;4902368;29;20493;-69
2023/01/30 11:45:17;;;;;;;49.95;5.55;;;7.00;99.90;;;;;;4902064;29;20555;-69
2023/01/30 11:47:52;;;;;;;34.58;4.50;;;;;;;;;;4918583;29;20047;-68
2023/01/30 11:50:19;;;;;;;44.15;4.53;;;6.90;99.90;;;;;;4920997;29;20130;-69
2023/01/30 11:52:45;;;;;;;41.33;5.35;;;;;;;;;;4913295;29;20127;-69
2023/01/30 11:55:19;;;;;;;32.42;5.38;;;;;;;;;;4908627;29;20464;-70
2023/01/30 11:57:57;;;;;;;49.88;5.63;;;7.40;99.90;;;;;;4920213;29;20098;-69
2023/01/30 12:00:25;;;;;;;55.60;4.75;;;;;;;;;;4920489;29;20052;-69
2023/01/30 12:02:53;;;;;;;50.63;6.25;;;;;;;;;;4918787;29;20071;-69
2023/01/30 12:05:22;;;;;;;49.95;5.75;;;;;;;;;;4913925;29;20043;-72
2023/01/30 12:07:50;;;;;;;47.70;5.18;;;;;;;;;;4912688;29;20043;-72
2023/01/30 12:10:56;;;;;;;33.78;5.70;;;7.70;99.90;;;;;;4894005;29;20524;-73
2023/01/30 12:13:29;;;;;;;34.75;4.05;;;;;;;;;;4900103;29;20047;-73
2023/01/30 12:16:14;;;;;;;30.70;4.78;;;;;;;;;;4920155;29;20043;-73
2023/01/30 12:19:07;;;;;;;47.13;6.28;;;8.00;99.90;;;;;;4908090;29;20047;-73
2023/01/30 12:22:04;;;;;;;30.33;4.82;;;7.80;99.90;;;;;;4904839;29;20108;-73
2023/01/30 12:24:48;;;;;;;34.05;4.45;;;;;;;;;;4901969;29;20126;-73
2023/01/30 12:27:43;;;;;;;41.85;5.63;;;8.00;99.90;;;;;;4893154;29;20042;-73
2023/01/30 12:30:22;;;;;;;33.45;4.45;;;;;;;;;;4886238;29;20051;-73
2023/01/30 12:32:48;;;;;;;53.10;7.53;;;;;;;;;;4908258;29;20119;-73
2023/01/30 12:35:19;;;;;;;26.98;4.20;;;7.90;99.90;;;;;;4901438;29;20123;-73
2023/01/30 12:37:56;;;;;;;43.22;6.15;;;8.30;99.90;;;;;;4911329;29;20043;-73
2023/01/30 12:40:28;;;;;;;36.22;5.65;;;;;;;;;;4901075;29;20531;-73
2023/01/30 12:43:21;;;;;;;44.08;5.15;;;8.10;99.90;;;;;;4919618;29;20043;-73
2023/01/30 12:45:50;;;;;;;51.55;7.00;;;;;;;;;;4919597;29;20050;-73
2023/01/30 12:48:16;;;;;;;52.78;5.00;;;;;;;;;;4909445;29;20479;-73
2023/01/30 12:50:42;;;;;;;40.70;4.68;;;;;;;;;;4917475;29;20058;-73
2023/01/30 12:53:14;;;;;;;54.40;6.85;;;;;;;;;;4912943;29;20492;-73
2023/01/30 12:55:50;;;;;;;54.72;5.53;;;;;;;;;;4904014;29;20086;-73
2023/01/30 12:58:44;;;;;;;44.88;6.65;;;8.30;99.90;;;;;;4906030;29;20055;-73
2023/01/30 13:01:10;;;;;;;52.97;7.20;;;;;;;;;;4919703;29;20087;-73
2023/01/30 13:03:50;;;;;;;52.60;7.53;;;8.40;99.90;;;;;;4905149;29;20489;-73
2023/01/30 13:06:35;;;;;;;73.95;7.55;;;;;;;;;;4906318;29;20050;-73
2023/01/30 13:09:19;;;;;;;68.85;7.20;;;8.40;99.90;;;;;;4886926;29;20052;-74
2023/01/30 13:11:54;;;;;;;58.45;7.05;;;;;;;;;;4900495;29;20048;-73
2023/01/30 13:14:23;;;;;;;67.97;7.72;;;;;;;;;;4934576;29;20050;-73
2023/01/30 13:16:49;;;;;;;64.18;7.95;;;;;;;;;;4919581;29;20388;-73
2023/01/30 13:19:34;;;;;;;48.95;7.38;;;8.60;99.90;;;;;;4917104;29;20047;-73
2023/01/30 13:22:00;;;;;;;83.53;7.88;;;;;;;;;;4918968;29;20114;-73
2023/01/30 13:24:45;;;;;;;61.78;8.77;;;8.40;99.90;;;;;;4906368;29;20039;-73
2023/01/30 13:27:16;;;;;;;72.93;8.10;;;8.40;99.90;;;;;;4918563;29;20040;-73
2023/01/30 13:29:42;;;;;;;63.85;7.07;;;;;;;;;;4900140;29;20040;-73
2023/01/30 13:32:40;;;;;;;82.85;8.98;;;8.40;99.90;;;;;;4914777;29;20052;-73
2023/01/30 13:35:13;;;;;;;64.38;7.43;;;;;;;;;;4913973;29;20083;-73
2023/01/30 13:37:39;;;;;;;53.13;6.47;;;;;;;;;;4908566;29;20094;-73
2023/01/30 13:40:13;;;;;;;60.90;6.53;;;;;;;;;;4906859;29;20054;-73
2023/01/30 13:43:01;;;;;;;72.38;7.97;;;8.40;99.90;;;;;;4908981;29;20078;-73
2023/01/30 13:45:31;;;;;;;77.97;8.45;;;8.20;99.90;;;;;;4910570;29;20066;-73
2023/01/30 13:48:16;;;;;;;59.38;6.18;;;;;;;;;;4925597;29;20380;-73
2023/01/30 13:50:50;;;;;;;61.33;6.88;;;8.30;99.90;;;;;;4918311;29;20047;-73
2023/01/30 13:53:40;;;;;;;68.10;7.15;;;;;;;;;;4912103;29;20051;-73
2023/01/30 13:56:33;;;;;;;61.33;8.05;;;;;;;;;;4858194;29;20126;-73
2023/01/30 13:58:59;;;;;;;60.78;8.10;;;;;;;;;;4909464;29;20060;-73
2023/01/30 14:01:48;;;;;;;82.05;10.35;;;;;;;;;;4908031;29;20047;-73
2023/01/30 14:04:39;;;;;;;62.00;7.32;;;8.20;99.90;;;;;;4909990;29;20040;-73
2023/01/30 14:07:11;;;;;;;59.00;8.70;;;;;;;;;;4888645;29;20048;-72
2023/01/30 14:09:48;;;;;;;49.08;6.47;;;;;;;;;;4912378;29;20516;-71
2023/01/30 14:12:24;;;;;;;73.05;7.07;;;;;;;;;;4907262;29;20572;-73
2023/01/30 14:15:19;;;;;;;54.33;8.02;;;;;;;;;;4922295;29;20146;-73
2023/01/30 14:18:01;;;;;;;68.22;7.95;;;;;;;;;;4886063;29;20145;-73
2023/01/30 14:20:48;;;;;;;63.63;8.95;;;8.30;99.90;;;;;;4909614;29;20099;-73
2023/01/30 14:23:44;;;;;;;66.28;6.35;;;;;;;;;;4911407;29;20126;-73
2023/01/30 14:26:10;;;;;;;58.95;6.70;;;;;;;;;;4890912;29;20048;-73
2023/01/30 14:28:36;;;;;;;63.47;6.90;;;;;;;;;;4914841;29;20395;-73
2023/01/30 14:31:03;;;;;;;63.10;8.27;;;;;;;;;;4907905;29;20493;-73